sensor_id;sensor_type;location;lat;lon;timestamp;P1;durP1;ratioP1;P2;durP2;ratioP2
76935;SDS011;65881;52.438;16.744;2023-04-25T00:00:32;3.03;;;2.60;;
76935;SDS011;65881;52.438;16.744;2023-04-25T00:02:59;3.63;;;2.58;;
76935;SDS011;65881;52.438;16.744;2023-04-25T00:05:26;3.85;;;2.63;;
76935;SDS011;65881;52.438;16.744;2023-04-25T00:07:52;3.10;;;2.70;;
76935;SDS011;65881;52.438;16.744;2023-04-25T00:10:19;2.97;;;2.67;;
76935;SDS011;65881;52.438;16.744;2023-04-25T00:12:45;2.72;;;2.50;;
76935;SDS011;65881;52.438;16.744;2023-04-25T00:15:11;5.40;;;3.13;;
76935;SDS011;65881;52.438;16.744;2023-04-25T00:17:37;2.92;;;2.60;;
76935;SDS011;65881;52.438;16.744;2023-04-25T00:20:06;3.65;;;2.55;;
76935;SDS011;65881;52.438;16.744;2023-04-25T00:22:34;3.90;;;2.50;;
76935;SDS011;65881;52.438;16.744;2023-04-25T00:25:06;3.38;;;2.55;;
76935;SDS011;65881;52.438;16.744;2023-04-25T00:27:32;3.88;;;2.60;;
76935;SDS011;65881;52.438;16.744;2023-04-25T00:29:58;3.40;;;2.65;;
76935;SDS011;65881;52.438;16.744;2023-04-25T00:32:23;4.20;;;3.10;;
76935;SDS011;65881;52.438;16.744;2023-04-25T00:34:50;2.85;;;2.40;;
76935;SDS011;65881;52.438;16.744;2023-04-25T00:37:15;3.00;;;2.58;;
76935;SDS011;65881;52.438;16.744;2023-04-25T00:39:41;3.40;;;2.70;;
76935;SDS011;65881;52.438;16.744;2023-04-25T00:42:08;4.07;;;2.72;;
76935;SDS011;65881;52.438;16.744;2023-04-25T00:44:34;5.05;;;2.90;;
76935;SDS011;65881;52.438;16.744;2023-04-25T00:47:10;3.40;;;3.03;;
76935;SDS011;65881;52.438;16.744;2023-04-25T00:49:37;3.03;;;2.72;;
76935;SDS011;65881;52.438;16.744;2023-04-25T00:52:03;5.82;;;2.97;;
76935;SDS011;65881;52.438;16.744;2023-04-25T00:54:29;3.08;;;2.67;;
76935;SDS011;65881;52.438;16.744;2023-04-25T00:56:55;4.20;;;3.15;;
76935;SDS011;65881;52.438;16.744;2023-04-25T00:59:21;5.75;;;3.15;;
76935;SDS011;65881;52.438;16.744;2023-04-25T01:01:47;4.18;;;2.80;;
76935;SDS011;65881;52.438;16.744;2023-04-25T01:04:13;4.63;;;3.35;;
76935;SDS011;65881;52.438;16.744;2023-04-25T01:06:39;3.85;;;2.85;;
76935;SDS011;65881;52.438;16.744;2023-04-25T01:09:09;3.38;;;2.80;;
76935;SDS011;65881;52.438;16.744;2023-04-25T01:11:35;4.03;;;3.10;;
76935;SDS011;65881;52.438;16.744;2023-04-25T01:14:00;3.40;;;2.80;;
76935;SDS011;65881;52.438;16.744;2023-04-25T01:16:32;3.53;;;3.10;;
76935;SDS011;65881;52.438;16.744;2023-04-25T01:18:58;5.20;;;2.85;;
76935;SDS011;65881;52.438;16.744;2023-04-25T01:21:24;4.07;;;3.28;;
76935;SDS011;65881;52.438;16.744;2023-04-25T01:23:58;3.53;;;3.15;;
76935;SDS011;65881;52.438;16.744;2023-04-25T01:26:24;3.33;;;2.83;;
76935;SDS011;65881;52.438;16.744;2023-04-25T01:28:50;3.42;;;2.92;;
76935;SDS011;65881;52.438;16.744;2023-04-25T01:31:17;4.00;;;3.05;;
76935;SDS011;65881;52.438;16.744;2023-04-25T01:33:44;3.40;;;2.78;;
76935;SDS011;65881;52.438;16.744;2023-04-25T01:36:10;4.07;;;3.40;;
76935;SDS011;65881;52.438;16.744;2023-04-25T01:38:36;3.47;;;2.80;;
76935;SDS011;65881;52.438;16.744;2023-04-25T01:41:02;4.20;;;3.42;;
76935;SDS011;65881;52.438;16.744;2023-04-25T01:43:28;3.80;;;2.95;;
76935;SDS011;65881;52.438;16.744;2023-04-25T01:45:54;3.67;;;2.80;;
76935;SDS011;65881;52.438;16.744;2023-04-25T01:48:20;4.30;;;3.20;;
76935;SDS011;65881;52.438;16.744;2023-04-25T01:50:46;3.92;;;3.28;;
76935;SDS011;65881;52.438;16.744;2023-04-25T01:53:12;4.00;;;3.58;;
76935;SDS011;65881;52.438;16.744;2023-04-25T01:55:43;3.53;;;3.22;;
76935;SDS011;65881;52.438;16.744;2023-04-25T01:58:33;5.05;;;3.85;;
76935;SDS011;65881;52.438;16.744;2023-04-25T02:00:59;4.07;;;2.75;;
76935;SDS011;65881;52.438;16.744;2023-04-25T02:03:45;4.25;;;3.60;;
76935;SDS011;65881;52.438;16.744;2023-04-25T02:06:10;4.60;;;3.95;;
76935;SDS011;65881;52.438;16.744;2023-04-25T02:08:36;5.00;;;3.88;;
76935;SDS011;65881;52.438;16.744;2023-04-25T02:11:02;5.88;;;3.90;;
76935;SDS011;65881;52.438;16.744;2023-04-25T02:13:28;5.32;;;3.80;;
76935;SDS011;65881;52.438;16.744;2023-04-25T02:15:54;7.32;;;3.40;;
76935;SDS011;65881;52.438;16.744;2023-04-25T02:18:23;4.90;;;3.92;;
76935;SDS011;65881;52.438;16.744;2023-04-25T02:20:48;4.45;;;3.92;;
76935;SDS011;65881;52.438;16.744;2023-04-25T02:23:14;5.10;;;4.10;;
76935;SDS011;65881;52.438;16.744;2023-04-25T02:25:44;5.30;;;4.00;;
76935;SDS011;65881;52.438;16.744;2023-04-25T02:28:09;6.85;;;4.07;;
76935;SDS011;65881;52.438;16.744;2023-04-25T02:30:35;5.57;;;4.20;;
76935;SDS011;65881;52.438;16.744;2023-04-25T02:33:01;4.75;;;3.92;;
76935;SDS011;65881;52.438;16.744;2023-04-25T02:35:27;4.68;;;3.90;;
76935;SDS011;65881;52.438;16.744;2023-04-25T02:37:53;6.10;;;4.07;;
76935;SDS011;65881;52.438;16.744;2023-04-25T02:40:18;4.43;;;4.03;;
76935;SDS011;65881;52.438;16.744;2023-04-25T02:42:44;5.13;;;4.07;;
76935;SDS011;65881;52.438;16.744;2023-04-25T02:45:11;4.97;;;4.28;;
76935;SDS011;65881;52.438;16.744;2023-04-25T02:47:38;7.35;;;4.68;;
76935;SDS011;65881;52.438;16.744;2023-04-25T02:50:05;5.95;;;4.43;;
76935;SDS011;65881;52.438;16.744;2023-04-25T02:52:31;6.93;;;5.10;;
76935;SDS011;65881;52.438;16.744;2023-04-25T02:54:57;5.47;;;4.80;;
76935;SDS011;65881;52.438;16.744;2023-04-25T02:57:22;5.63;;;4.60;;
76935;SDS011;65881;52.438;16.744;2023-04-25T02:59:48;6.10;;;4.50;;
76935;SDS011;65881;52.438;16.744;2023-04-25T03:02:14;7.90;;;5.55;;
76935;SDS011;65881;52.438;16.744;2023-04-25T03:04:43;5.10;;;4.38;;
76935;SDS011;65881;52.438;16.744;2023-04-25T03:07:08;7.72;;;5.10;;
76935;SDS011;65881;52.438;16.744;2023-04-25T03:09:34;5.47;;;4.55;;
76935;SDS011;65881;52.438;16.744;2023-04-25T03:12:08;9.55;;;4.68;;
76935;SDS011;65881;52.438;16.744;2023-04-25T03:14:34;6.45;;;5.30;;
76935;SDS011;65881;52.438;16.744;2023-04-25T03:16:59;10.00;;;5.32;;
76935;SDS011;65881;52.438;16.744;2023-04-25T03:19:25;8.13;;;5.28;;
76935;SDS011;65881;52.438;16.744;2023-04-25T03:21:54;9.73;;;6.40;;
76935;SDS011;65881;52.438;16.744;2023-04-25T03:24:19;10.02;;;5.88;;
76935;SDS011;65881;52.438;16.744;2023-04-25T03:26:51;6.13;;;4.63;;
76935;SDS011;65881;52.438;16.744;2023-04-25T03:29:16;6.43;;;5.25;;
76935;SDS011;65881;52.438;16.744;2023-04-25T03:31:42;6.70;;;5.00;;
76935;SDS011;65881;52.438;16.744;2023-04-25T03:34:08;6.13;;;5.28;;
76935;SDS011;65881;52.438;16.744;2023-04-25T03:36:33;8.30;;;5.60;;
76935;SDS011;65881;52.438;16.744;2023-04-25T03:38:59;9.32;;;5.05;;
76935;SDS011;65881;52.438;16.744;2023-04-25T03:41:25;10.00;;;6.47;;
76935;SDS011;65881;52.438;16.744;2023-04-25T03:43:51;6.80;;;5.75;;
76935;SDS011;65881;52.438;16.744;2023-04-25T03:46:16;7.13;;;5.75;;
76935;SDS011;65881;52.438;16.744;2023-04-25T03:48:42;6.63;;;5.85;;
76935;SDS011;65881;52.438;16.744;2023-04-25T03:51:20;7.70;;;6.07;;
76935;SDS011;65881;52.438;16.744;2023-04-25T03:53:51;8.80;;;6.13;;
76935;SDS011;65881;52.438;16.744;2023-04-25T03:56:23;10.00;;;5.78;;
76935;SDS011;65881;52.438;16.744;2023-04-25T03:59:06;6.60;;;5.90;;
76935;SDS011;65881;52.438;16.744;2023-04-25T04:01:33;8.63;;;5.47;;
76935;SDS011;65881;52.438;16.744;2023-04-25T04:04:13;7.10;;;6.25;;
76935;SDS011;65881;52.438;16.744;2023-04-25T04:06:50;8.18;;;6.07;;
76935;SDS011;65881;52.438;16.744;2023-04-25T04:09:18;9.27;;;6.28;;
76935;SDS011;65881;52.438;16.744;2023-04-25T04:12:01;9.77;;;6.05;;
76935;SDS011;65881;52.438;16.744;2023-04-25T04:14:34;8.93;;;6.03;;
76935;SDS011;65881;52.438;16.744;2023-04-25T04:17:00;7.72;;;5.53;;
76935;SDS011;65881;52.438;16.744;2023-04-25T04:19:30;12.40;;;8.95;;
76935;SDS011;65881;52.438;16.744;2023-04-25T04:21:55;8.77;;;5.38;;
76935;SDS011;65881;52.438;16.744;2023-04-25T04:24:21;8.48;;;5.00;;
76935;SDS011;65881;52.438;16.744;2023-04-25T04:26:47;10.65;;;6.88;;
76935;SDS011;65881;52.438;16.744;2023-04-25T04:29:12;12.77;;;6.82;;
76935;SDS011;65881;52.438;16.744;2023-04-25T04:31:46;7.95;;;6.65;;
76935;SDS011;65881;52.438;16.744;2023-04-25T04:34:15;11.07;;;6.43;;
76935;SDS011;65881;52.438;16.744;2023-04-25T04:36:42;6.90;;;5.65;;
76935;SDS011;65881;52.438;16.744;2023-04-25T04:39:12;12.13;;;6.68;;
76935;SDS011;65881;52.438;16.744;2023-04-25T04:41:39;11.38;;;6.78;;
76935;SDS011;65881;52.438;16.744;2023-04-25T04:44:18;8.63;;;7.00;;
76935;SDS011;65881;52.438;16.744;2023-04-25T04:46:44;8.82;;;6.05;;
76935;SDS011;65881;52.438;16.744;2023-04-25T04:49:11;8.88;;;6.60;;
76935;SDS011;65881;52.438;16.744;2023-04-25T04:51:39;10.93;;;6.55;;
76935;SDS011;65881;52.438;16.744;2023-04-25T04:54:06;9.88;;;6.95;;
76935;SDS011;65881;52.438;16.744;2023-04-25T04:56:31;9.75;;;5.55;;
76935;SDS011;65881;52.438;16.744;2023-04-25T04:59:00;7.88;;;6.00;;
76935;SDS011;65881;52.438;16.744;2023-04-25T05:01:27;7.53;;;5.63;;
76935;SDS011;65881;52.438;16.744;2023-04-25T05:03:54;8.68;;;6.70;;
76935;SDS011;65881;52.438;16.744;2023-04-25T05:06:25;7.40;;;6.03;;
76935;SDS011;65881;52.438;16.744;2023-04-25T05:08:51;10.75;;;6.28;;
76935;SDS011;65881;52.438;16.744;2023-04-25T05:11:18;10.10;;;5.68;;
76935;SDS011;65881;52.438;16.744;2023-04-25T05:13:45;6.07;;;5.45;;
76935;SDS011;65881;52.438;16.744;2023-04-25T05:16:11;7.78;;;6.40;;
76935;SDS011;65881;52.438;16.744;2023-04-25T05:18:37;9.70;;;5.65;;
76935;SDS011;65881;52.438;16.744;2023-04-25T05:21:04;7.57;;;5.88;;
76935;SDS011;65881;52.438;16.744;2023-04-25T05:23:30;6.70;;;5.72;;
76935;SDS011;65881;52.438;16.744;2023-04-25T05:25:57;10.18;;;6.13;;
76935;SDS011;65881;52.438;16.744;2023-04-25T05:28:23;6.93;;;5.80;;
76935;SDS011;65881;52.438;16.744;2023-04-25T05:30:49;11.27;;;6.55;;
76935;SDS011;65881;52.438;16.744;2023-04-25T05:33:15;6.88;;;6.03;;
76935;SDS011;65881;52.438;16.744;2023-04-25T05:35:41;7.80;;;6.03;;
76935;SDS011;65881;52.438;16.744;2023-04-25T05:38:07;6.03;;;5.13;;
76935;SDS011;65881;52.438;16.744;2023-04-25T05:40:32;6.88;;;5.90;;
76935;SDS011;65881;52.438;16.744;2023-04-25T05:42:58;8.82;;;6.57;;
76935;SDS011;65881;52.438;16.744;2023-04-25T05:48:11;6.65;;;5.55;;
76935;SDS011;65881;52.438;16.744;2023-04-25T05:50:37;8.25;;;5.72;;
76935;SDS011;65881;52.438;16.744;2023-04-25T05:53:05;8.15;;;5.25;;
76935;SDS011;65881;52.438;16.744;2023-04-25T05:55:31;9.57;;;6.70;;
76935;SDS011;65881;52.438;16.744;2023-04-25T05:57:57;6.90;;;5.38;;
76935;SDS011;65881;52.438;16.744;2023-04-25T06:00:22;6.90;;;5.60;;
76935;SDS011;65881;52.438;16.744;2023-04-25T06:02:56;7.63;;;4.90;;
76935;SDS011;65881;52.438;16.744;2023-04-25T06:05:22;8.27;;;5.95;;
76935;SDS011;65881;52.438;16.744;2023-04-25T06:07:47;6.35;;;5.65;;
76935;SDS011;65881;52.438;16.744;2023-04-25T06:10:13;8.95;;;5.85;;
76935;SDS011;65881;52.438;16.744;2023-04-25T06:12:39;7.38;;;6.68;;
76935;SDS011;65881;52.438;16.744;2023-04-25T06:15:05;8.95;;;5.45;;
76935;SDS011;65881;52.438;16.744;2023-04-25T06:17:32;6.40;;;5.55;;
76935;SDS011;65881;52.438;16.744;2023-04-25T06:19:58;7.07;;;5.30;;
76935;SDS011;65881;52.438;16.744;2023-04-25T06:22:24;8.35;;;6.10;;
76935;SDS011;65881;52.438;16.744;2023-04-25T06:24:50;8.48;;;5.50;;
76935;SDS011;65881;52.438;16.744;2023-04-25T06:27:17;11.32;;;6.47;;
76935;SDS011;65881;52.438;16.744;2023-04-25T06:29:42;11.27;;;5.70;;
76935;SDS011;65881;52.438;16.744;2023-04-25T06:32:11;6.72;;;6.03;;
76935;SDS011;65881;52.438;16.744;2023-04-25T06:34:36;7.88;;;6.20;;
76935;SDS011;65881;52.438;16.744;2023-04-25T06:37:02;7.18;;;6.05;;
76935;SDS011;65881;52.438;16.744;2023-04-25T06:39:29;7.63;;;5.95;;
76935;SDS011;65881;52.438;16.744;2023-04-25T06:41:55;7.43;;;6.18;;
76935;SDS011;65881;52.438;16.744;2023-04-25T06:44:26;10.70;;;5.68;;
76935;SDS011;65881;52.438;16.744;2023-04-25T06:46:54;12.55;;;7.22;;
76935;SDS011;65881;52.438;16.744;2023-04-25T06:49:20;10.23;;;6.95;;
76935;SDS011;65881;52.438;16.744;2023-04-25T06:51:45;11.07;;;5.90;;
76935;SDS011;65881;52.438;16.744;2023-04-25T06:54:11;9.45;;;5.75;;
76935;SDS011;65881;52.438;16.744;2023-04-25T06:56:37;9.23;;;5.80;;
76935;SDS011;65881;52.438;16.744;2023-04-25T06:59:02;10.27;;;6.53;;
76935;SDS011;65881;52.438;16.744;2023-04-25T07:01:28;7.90;;;6.13;;
76935;SDS011;65881;52.438;16.744;2023-04-25T07:03:56;14.18;;;8.30;;
76935;SDS011;65881;52.438;16.744;2023-04-25T07:06:23;7.55;;;5.10;;
76935;SDS011;65881;52.438;16.744;2023-04-25T07:08:50;9.52;;;5.85;;
76935;SDS011;65881;52.438;16.744;2023-04-25T07:11:16;8.73;;;6.00;;
76935;SDS011;65881;52.438;16.744;2023-04-25T07:13:42;8.57;;;6.18;;
76935;SDS011;65881;52.438;16.744;2023-04-25T07:16:07;8.00;;;6.00;;
76935;SDS011;65881;52.438;16.744;2023-04-25T07:18:33;9.40;;;6.40;;
76935;SDS011;65881;52.438;16.744;2023-04-25T07:20:58;7.38;;;5.28;;
76935;SDS011;65881;52.438;16.744;2023-04-25T07:23:24;15.85;;;6.68;;
76935;SDS011;65881;52.438;16.744;2023-04-25T07:25:50;7.53;;;5.68;;
76935;SDS011;65881;52.438;16.744;2023-04-25T07:28:15;9.90;;;5.82;;
76935;SDS011;65881;52.438;16.744;2023-04-25T07:30:41;7.63;;;5.78;;
76935;SDS011;65881;52.438;16.744;2023-04-25T07:33:07;9.18;;;6.28;;
76935;SDS011;65881;52.438;16.744;2023-04-25T07:35:32;9.98;;;6.25;;
76935;SDS011;65881;52.438;16.744;2023-04-25T07:37:58;8.10;;;5.75;;
76935;SDS011;65881;52.438;16.744;2023-04-25T07:40:24;7.80;;;6.05;;
76935;SDS011;65881;52.438;16.744;2023-04-25T07:42:49;9.32;;;5.68;;
76935;SDS011;65881;52.438;16.744;2023-04-25T07:45:15;6.47;;;5.43;;
76935;SDS011;65881;52.438;16.744;2023-04-25T07:47:41;9.35;;;5.78;;
76935;SDS011;65881;52.438;16.744;2023-04-25T07:50:07;6.20;;;5.00;;
76935;SDS011;65881;52.438;16.744;2023-04-25T07:52:33;8.73;;;6.18;;
76935;SDS011;65881;52.438;16.744;2023-04-25T07:55:01;7.22;;;5.43;;
76935;SDS011;65881;52.438;16.744;2023-04-25T07:57:26;8.52;;;5.95;;
76935;SDS011;65881;52.438;16.744;2023-04-25T07:59:52;8.10;;;5.57;;
76935;SDS011;65881;52.438;16.744;2023-04-25T08:02:18;8.10;;;7.00;;
76935;SDS011;65881;52.438;16.744;2023-04-25T08:04:44;11.38;;;6.10;;
76935;SDS011;65881;52.438;16.744;2023-04-25T08:07:14;8.23;;;5.80;;
76935;SDS011;65881;52.438;16.744;2023-04-25T08:09:40;8.65;;;6.47;;
76935;SDS011;65881;52.438;16.744;2023-04-25T08:12:06;11.40;;;6.75;;
76935;SDS011;65881;52.438;16.744;2023-04-25T08:14:31;8.43;;;6.45;;
76935;SDS011;65881;52.438;16.744;2023-04-25T08:17:01;9.55;;;6.22;;
76935;SDS011;65881;52.438;16.744;2023-04-25T08:19:28;14.15;;;7.85;;
76935;SDS011;65881;52.438;16.744;2023-04-25T08:21:55;11.30;;;6.22;;
76935;SDS011;65881;52.438;16.744;2023-04-25T08:24:21;7.35;;;5.65;;
76935;SDS011;65881;52.438;16.744;2023-04-25T08:26:47;9.85;;;6.75;;
76935;SDS011;65881;52.438;16.744;2023-04-25T08:29:13;15.15;;;6.90;;
76935;SDS011;65881;52.438;16.744;2023-04-25T08:31:39;6.35;;;5.75;;
76935;SDS011;65881;52.438;16.744;2023-04-25T08:34:05;9.00;;;7.10;;
76935;SDS011;65881;52.438;16.744;2023-04-25T08:36:33;8.70;;;6.05;;
76935;SDS011;65881;52.438;16.744;2023-04-25T08:38:59;11.10;;;6.50;;
76935;SDS011;65881;52.438;16.744;2023-04-25T08:41:26;10.10;;;7.97;;
76935;SDS011;65881;52.438;16.744;2023-04-25T08:43:52;7.35;;;5.75;;
76935;SDS011;65881;52.438;16.744;2023-04-25T08:46:19;7.57;;;5.75;;
76935;SDS011;65881;52.438;16.744;2023-04-25T08:48:46;8.15;;;6.25;;
76935;SDS011;65881;52.438;16.744;2023-04-25T08:51:22;9.80;;;6.60;;
76935;SDS011;65881;52.438;16.744;2023-04-25T08:53:50;8.20;;;6.75;;
76935;SDS011;65881;52.438;16.744;2023-04-25T08:56:17;10.55;;;5.90;;
76935;SDS011;65881;52.438;16.744;2023-04-25T08:58:45;9.93;;;6.13;;
76935;SDS011;65881;52.438;16.744;2023-04-25T09:01:13;9.30;;;6.72;;
76935;SDS011;65881;52.438;16.744;2023-04-25T09:03:39;6.97;;;6.20;;
76935;SDS011;65881;52.438;16.744;2023-04-25T09:06:05;8.65;;;6.93;;
76935;SDS011;65881;52.438;16.744;2023-04-25T09:08:31;9.80;;;7.38;;
76935;SDS011;65881;52.438;16.744;2023-04-25T09:10:56;10.38;;;6.60;;
76935;SDS011;65881;52.438;16.744;2023-04-25T09:13:26;8.65;;;6.53;;
76935;SDS011;65881;52.438;16.744;2023-04-25T09:15:56;7.03;;;5.93;;
76935;SDS011;65881;52.438;16.744;2023-04-25T09:20:55;7.18;;;6.47;;
76935;SDS011;65881;52.438;16.744;2023-04-25T09:23:23;10.73;;;6.28;;
76935;SDS011;65881;52.438;16.744;2023-04-25T09:25:52;9.70;;;6.25;;
76935;SDS011;65881;52.438;16.744;2023-04-25T09:28:25;8.07;;;6.47;;
76935;SDS011;65881;52.438;16.744;2023-04-25T09:30:56;6.70;;;5.57;;
76935;SDS011;65881;52.438;16.744;2023-04-25T09:33:29;7.78;;;6.05;;
76935;SDS011;65881;52.438;16.744;2023-04-25T09:36:01;6.65;;;5.72;;
76935;SDS011;65881;52.438;16.744;2023-04-25T09:38:40;7.38;;;6.57;;
76935;SDS011;65881;52.438;16.744;2023-04-25T09:41:07;6.00;;;5.40;;
76935;SDS011;65881;52.438;16.744;2023-04-25T09:43:36;8.30;;;6.13;;
76935;SDS011;65881;52.438;16.744;2023-04-25T09:46:07;7.40;;;5.68;;
76935;SDS011;65881;52.438;16.744;2023-04-25T09:48:34;6.65;;;5.97;;
76935;SDS011;65881;52.438;16.744;2023-04-25T09:53:34;6.43;;;5.15;;
76935;SDS011;65881;52.438;16.744;2023-04-25T09:56:04;6.97;;;5.28;;
76935;SDS011;65881;52.438;16.744;2023-04-25T09:58:35;6.95;;;6.18;;
76935;SDS011;65881;52.438;16.744;2023-04-25T10:01:02;9.52;;;6.07;;
76935;SDS011;65881;52.438;16.744;2023-04-25T10:03:30;11.75;;;5.43;;
76935;SDS011;65881;52.438;16.744;2023-04-25T10:06:00;10.25;;;5.78;;
76935;SDS011;65881;52.438;16.744;2023-04-25T10:08:34;5.82;;;5.05;;
76935;SDS011;65881;52.438;16.744;2023-04-25T10:11:02;6.07;;;5.00;;
76935;SDS011;65881;52.438;16.744;2023-04-25T10:13:29;5.75;;;5.05;;
76935;SDS011;65881;52.438;16.744;2023-04-25T10:15:59;9.05;;;5.32;;
76935;SDS011;65881;52.438;16.744;2023-04-25T10:18:29;6.20;;;5.03;;
76935;SDS011;65881;52.438;16.744;2023-04-25T10:20:57;5.30;;;4.60;;
76935;SDS011;65881;52.438;16.744;2023-04-25T10:23:24;6.10;;;5.20;;
76935;SDS011;65881;52.438;16.744;2023-04-25T10:25:51;7.03;;;5.60;;
76935;SDS011;65881;52.438;16.744;2023-04-25T10:28:20;8.05;;;5.25;;
76935;SDS011;65881;52.438;16.744;2023-04-25T10:31:02;7.35;;;5.38;;
76935;SDS011;65881;52.438;16.744;2023-04-25T10:33:39;12.40;;;5.18;;
76935;SDS011;65881;52.438;16.744;2023-04-25T10:36:08;7.10;;;4.85;;
76935;SDS011;65881;52.438;16.744;2023-04-25T10:38:38;7.15;;;5.18;;
76935;SDS011;65881;52.438;16.744;2023-04-25T10:41:05;6.30;;;5.15;;
76935;SDS011;65881;52.438;16.744;2023-04-25T10:48:51;5.93;;;5.13;;
76935;SDS011;65881;52.438;16.744;2023-04-25T10:51:24;8.75;;;5.90;;
76935;SDS011;65881;52.438;16.744;2023-04-25T10:56:20;7.88;;;6.22;;
76935;SDS011;65881;52.438;16.744;2023-04-25T11:01:53;6.38;;;5.32;;
76935;SDS011;65881;52.438;16.744;2023-04-25T11:04:30;8.15;;;5.40;;
76935;SDS011;65881;52.438;16.744;2023-04-25T11:09:35;7.47;;;5.38;;
76935;SDS011;65881;52.438;16.744;2023-04-25T11:12:03;7.90;;;4.80;;
76935;SDS011;65881;52.438;16.744;2023-04-25T11:14:29;5.10;;;4.60;;
76935;SDS011;65881;52.438;16.744;2023-04-25T11:16:58;6.15;;;4.63;;
76935;SDS011;65881;52.438;16.744;2023-04-25T11:19:26;5.78;;;5.13;;
76935;SDS011;65881;52.438;16.744;2023-04-25T11:21:59;6.68;;;4.78;;
76935;SDS011;65881;52.438;16.744;2023-04-25T11:24:32;5.78;;;4.50;;
76935;SDS011;65881;52.438;16.744;2023-04-25T11:27:02;5.28;;;4.30;;
76935;SDS011;65881;52.438;16.744;2023-04-25T11:29:32;6.97;;;4.70;;
76935;SDS011;65881;52.438;16.744;2023-04-25T11:31:59;6.63;;;4.50;;
76935;SDS011;65881;52.438;16.744;2023-04-25T11:34:27;7.63;;;4.53;;
76935;SDS011;65881;52.438;16.744;2023-04-25T11:36:56;6.68;;;4.75;;
76935;SDS011;65881;52.438;16.744;2023-04-25T11:39:23;7.05;;;4.90;;
76935;SDS011;65881;52.438;16.744;2023-04-25T11:41:50;6.25;;;5.65;;
76935;SDS011;65881;52.438;16.744;2023-04-25T11:44:16;8.23;;;4.95;;
76935;SDS011;65881;52.438;16.744;2023-04-25T11:46:43;7.40;;;4.95;;
76935;SDS011;65881;52.438;16.744;2023-04-25T11:49:08;7.30;;;4.68;;
76935;SDS011;65881;52.438;16.744;2023-04-25T11:51:41;6.18;;;4.13;;
76935;SDS011;65881;52.438;16.744;2023-04-25T11:54:08;7.25;;;5.30;;
76935;SDS011;65881;52.438;16.744;2023-04-25T11:56:34;11.82;;;6.32;;
76935;SDS011;65881;52.438;16.744;2023-04-25T11:59:01;6.95;;;5.68;;
76935;SDS011;65881;52.438;16.744;2023-04-25T12:01:31;9.48;;;5.90;;
76935;SDS011;65881;52.438;16.744;2023-04-25T12:06:39;6.97;;;5.03;;
76935;SDS011;65881;52.438;16.744;2023-04-25T12:09:09;8.02;;;5.22;;
76935;SDS011;65881;52.438;16.744;2023-04-25T12:11:52;5.95;;;5.10;;
76935;SDS011;65881;52.438;16.744;2023-04-25T12:14:21;9.32;;;5.15;;
76935;SDS011;65881;52.438;16.744;2023-04-25T12:16:55;11.45;;;5.38;;
76935;SDS011;65881;52.438;16.744;2023-04-25T12:19:23;7.38;;;4.75;;
76935;SDS011;65881;52.438;16.744;2023-04-25T12:21:57;6.10;;;4.68;;
76935;SDS011;65881;52.438;16.744;2023-04-25T12:24:26;6.07;;;4.65;;
76935;SDS011;65881;52.438;16.744;2023-04-25T12:26:53;6.80;;;5.03;;
76935;SDS011;65881;52.438;16.744;2023-04-25T12:29:27;5.82;;;3.65;;
76935;SDS011;65881;52.438;16.744;2023-04-25T12:31:54;5.72;;;4.28;;
76935;SDS011;65881;52.438;16.744;2023-04-25T12:34:22;7.38;;;5.03;;
76935;SDS011;65881;52.438;16.744;2023-04-25T12:36:51;5.93;;;5.25;;
76935;SDS011;65881;52.438;16.744;2023-04-25T12:39:21;6.10;;;4.70;;
76935;SDS011;65881;52.438;16.744;2023-04-25T12:41:51;5.72;;;5.03;;
76935;SDS011;65881;52.438;16.744;2023-04-25T12:44:19;6.90;;;5.53;;
76935;SDS011;65881;52.438;16.744;2023-04-25T12:46:45;7.40;;;5.10;;
76935;SDS011;65881;52.438;16.744;2023-04-25T12:49:11;6.20;;;4.53;;
76935;SDS011;65881;52.438;16.744;2023-04-25T12:51:37;7.15;;;5.47;;
76935;SDS011;65881;52.438;16.744;2023-04-25T12:54:06;6.95;;;5.47;;
76935;SDS011;65881;52.438;16.744;2023-04-25T12:56:56;4.28;;;3.55;;
76935;SDS011;65881;52.438;16.744;2023-04-25T12:59:23;3.92;;;2.45;;
76935;SDS011;65881;52.438;16.744;2023-04-25T13:01:48;4.60;;;2.80;;
76935;SDS011;65881;52.438;16.744;2023-04-25T13:04:14;2.85;;;1.90;;
76935;SDS011;65881;52.438;16.744;2023-04-25T13:06:40;2.40;;;2.20;;
76935;SDS011;65881;52.438;16.744;2023-04-25T13:09:06;3.55;;;1.73;;
76935;SDS011;65881;52.438;16.744;2023-04-25T13:11:35;2.35;;;2.03;;
76935;SDS011;65881;52.438;16.744;2023-04-25T13:14:01;3.72;;;2.20;;
76935;SDS011;65881;52.438;16.744;2023-04-25T13:16:27;2.65;;;2.00;;
76935;SDS011;65881;52.438;16.744;2023-04-25T13:18:53;3.28;;;2.33;;
76935;SDS011;65881;52.438;16.744;2023-04-25T13:21:21;3.38;;;3.08;;
76935;SDS011;65881;52.438;16.744;2023-04-25T13:23:46;5.38;;;2.95;;
76935;SDS011;65881;52.438;16.744;2023-04-25T13:26:12;6.60;;;4.60;;
76935;SDS011;65881;52.438;16.744;2023-04-25T13:28:38;5.72;;;3.92;;
76935;SDS011;65881;52.438;16.744;2023-04-25T13:31:05;7.80;;;4.38;;
76935;SDS011;65881;52.438;16.744;2023-04-25T13:33:31;9.40;;;5.13;;
76935;SDS011;65881;52.438;16.744;2023-04-25T13:35:56;5.38;;;4.60;;
76935;SDS011;65881;52.438;16.744;2023-04-25T13:38:25;6.00;;;5.20;;
76935;SDS011;65881;52.438;16.744;2023-04-25T13:40:51;7.90;;;5.25;;
76935;SDS011;65881;52.438;16.744;2023-04-25T13:43:20;7.30;;;5.18;;
76935;SDS011;65881;52.438;16.744;2023-04-25T13:45:52;8.70;;;4.88;;
76935;SDS011;65881;52.438;16.744;2023-04-25T13:48:18;8.23;;;5.53;;
76935;SDS011;65881;52.438;16.744;2023-04-25T13:50:44;6.53;;;5.22;;
76935;SDS011;65881;52.438;16.744;2023-04-25T13:53:10;7.68;;;5.70;;
76935;SDS011;65881;52.438;16.744;2023-04-25T13:55:37;6.15;;;5.13;;
76935;SDS011;65881;52.438;16.744;2023-04-25T13:58:03;8.90;;;4.28;;
76935;SDS011;65881;52.438;16.744;2023-04-25T14:00:36;8.00;;;3.85;;
76935;SDS011;65881;52.438;16.744;2023-04-25T14:03:07;4.05;;;3.65;;
76935;SDS011;65881;52.438;16.744;2023-04-25T14:05:33;6.82;;;4.93;;
76935;SDS011;65881;52.438;16.744;2023-04-25T14:08:20;5.65;;;5.10;;
76935;SDS011;65881;52.438;16.744;2023-04-25T14:10:45;4.90;;;4.40;;
76935;SDS011;65881;52.438;16.744;2023-04-25T14:13:11;5.15;;;3.72;;
76935;SDS011;65881;52.438;16.744;2023-04-25T14:15:37;6.72;;;4.13;;
76935;SDS011;65881;52.438;16.744;2023-04-25T14:18:02;7.65;;;4.10;;
76935;SDS011;65881;52.438;16.744;2023-04-25T14:20:28;5.13;;;3.70;;
76935;SDS011;65881;52.438;16.744;2023-04-25T14:22:54;4.05;;;3.22;;
76935;SDS011;65881;52.438;16.744;2023-04-25T14:25:21;4.97;;;3.17;;
76935;SDS011;65881;52.438;16.744;2023-04-25T14:27:56;3.92;;;3.28;;
76935;SDS011;65881;52.438;16.744;2023-04-25T14:30:24;4.40;;;3.42;;
76935;SDS011;65881;52.438;16.744;2023-04-25T14:32:50;8.55;;;3.70;;
76935;SDS011;65881;52.438;16.744;2023-04-25T14:35:15;4.82;;;3.65;;
76935;SDS011;65881;52.438;16.744;2023-04-25T14:37:41;5.63;;;3.40;;
76935;SDS011;65881;52.438;16.744;2023-04-25T14:40:07;5.65;;;3.40;;
76935;SDS011;65881;52.438;16.744;2023-04-25T14:42:35;5.90;;;3.83;;
76935;SDS011;65881;52.438;16.744;2023-04-25T14:45:02;4.78;;;3.67;;
76935;SDS011;65881;52.438;16.744;2023-04-25T14:47:29;4.30;;;3.28;;
76935;SDS011;65881;52.438;16.744;2023-04-25T14:49:54;4.45;;;2.65;;
76935;SDS011;65881;52.438;16.744;2023-04-25T14:52:21;5.38;;;3.58;;
76935;SDS011;65881;52.438;16.744;2023-04-25T14:54:46;7.18;;;3.33;;
76935;SDS011;65881;52.438;16.744;2023-04-25T14:57:12;5.53;;;2.92;;
76935;SDS011;65881;52.438;16.744;2023-04-25T14:59:38;6.57;;;3.90;;